Tiempo atmosférico en la estación meteorológica de Labastida, Araba/Álava (610 m.)



Fecha
DESCASC
Temp. máxima en grados centígrados (hora)
DESCASC
Temp. mínima en grados centígrados (hora)
DESCASC
Temp. media en grados centígrados
DESCASC
Racha de viento máxima en m/sg (hora)
DESCASC
Velocidad máxima media en intervalos de 10 minutos(hora)
DESCASC
Precipitaciones diarias en mm
DESCASC
Precipitaciones de 00:00 a 06:00 en mm
DESCASC
Precipitaciones de 06:00 a 12:00 en mm
DESCASC
Precipitaciones de 12:00 a 18:00 en mm
DESCASC
Precipitaciones de 18:00 a 24:00 en mm
DESCASC
24-09-2020 22.2 (16:10) 15 (08:50) 18.6 12.22 (15:50) 4.17 (15:30) 0 0 0 0 0
23-09-2020 24.3 (16:50) 13 (00:00) 18.6 8.33 (15:50) 3.06 (20:10) 0.4 0 0 0 0.4
22-09-2020 23.8 (16:50) 10.8 (00:00) 17.3 5 (14:20) 2.22 (13:10) 0 0 0 0 0
21-09-2020 22.8 (16:50) 12.7 (00:00) 17.7 8.89 (22:30) 4.44 (22:30) 0 0 0 0 0
20-09-2020 21.3 (15:30) 13.6 (00:00) 17.4 6.39 (23:00) 2.78 (22:20) 0.8 0 0.2 0.4 0.2
19-09-2020 19.3 (15:50) 13.7 (00:00) 16.5 6.94 (12:50) 2.78 (12:40) 17.6 0.8 1.2 7 8.6
18-09-2020 24.3 (17:20) 16.6 (00:00) 20.4 10.83 (09:00) 5.28 (09:00) 12.6 12.4 0.2 0 0
17-09-2020 29.5 (14:50) 17.7 (00:00) 23.6 11.67 (21:50) 5.83 (21:30) 0.2 0.2 0 0 0
16-09-2020 31.5 (15:30) 14.6 (00:00) 23.1 6.11 (23:00) 2.5 (23:20) 0 0 0 0 0
15-09-2020 30.2 (16:20) 16.2 (00:00) 23.2 7.22 (03:00) 3.33 (12:00) 1.4 0 1.4 0 0
14-09-2020 30.9 (14:10) 19.4 (00:00) 25.1 10.28 (12:30) 5 (11:50) 0 0 0 0 0
13-09-2020 32.6 (17:00) 11.7 (00:00) 22.1 10.83 (20:30) 5.56 (20:30) 0 0 0 0 0
12-09-2020 30.2 (15:50) 10.9 (00:00) 20.6 8.89 (18:50) 3.61 (20:30) 0 0 0 0 0
11-09-2020 28.4 (17:10) 12.6 (00:00) 20.5 8.89 (15:00) 4.72 (15:00) 0 0 0 0 0
10-09-2020 28.1 (16:50) 11.8 (00:00) 20 8.61 (20:40) 4.44 (21:00) 0 0 0 0 0
09-09-2020 27.9 (15:30) 10.1 (00:00) 19 10.83 (21:00) 5 (19:40) 0 0 0 0 0
08-09-2020 28.1 (17:10) 8.7 (00:00) 18.4 6.67 (16:50) 4.17 (17:00) 0 0 0 0 0
07-09-2020 20.8 (16:30) 12.3 (10:10) 16.5 10 (21:40) 4.44 (05:40) 0 0 0 0 0
06-09-2020 20.6 (16:30) 14.2 (00:00) 17.4 8.61 (20:10) 3.33 (17:30) 0 0 0 0 0
05-09-2020 25.1 (00:00) 16.6 (00:00) 20.9 10.56 (17:50) 4.44 (14:00) 0 0 0 0 0
04-09-2020 32.5 (18:10) 12 (00:00) 22.3 7.5 (12:40) 4.72 (12:40) 0 0 0 0 0
03-09-2020 31.2 (17:30) 7.1 (00:00) 19.2 5 (18:40) 2.78 (18:40) 0 0 0 0 0
02-09-2020 24.3 (17:30) 10.1 (00:00) 17.2 11.94 (14:00) 3.89 (13:50) 0 0 0 0 0
01-09-2020 24.9 (15:10) 10.4 (00:00) 17.6 12.5 (22:40) 5.83 (22:40) 0 0 0 0 0
31-08-2020 23.8 (16:50) 6.5 (00:00) 15.1 8.61 (20:30) 3.61 (21:00) 0 0 0 0 0
30-08-2020 17.2 (16:20) 9.1 (00:00) 13.2 9.72 (20:10) 5 (19:50) 1 0.8 0 0.2 0
29-08-2020 17.9 (14:40) 10.4 (00:00) 14.1 9.72 (17:50) 3.61 (17:00) 8.2 0 0 4 4.2
28-08-2020 20.1 (00:00) 14.5 (00:00) 17.3 12.78 (18:50) 7.22 (18:50) 0 0 0 0 0

Gráficas

Temp. máximas Temp. mínimas Temp. medias Precipitaciones Rachas de viento máximas Velocidades máximas media en intervalos de 10 minutos

Datos horarios

Fecha y hora oficial Temperatura (ºC) Velocidad del viento (km/h) Dirección del viento Racha (km/h) Dirección de racha Precipitación (mm) Presión (hPa) Tendencia (hPa) Humedad (%)
2020-09-26 23:00:00 15.4 13 Norte 28 Sudoeste 0 -- -- 76
2020-09-26 22:00:00 15.4 9 Norte 23 Noroeste 0 -- -- 76
2020-09-26 21:00:00 14.9 10 Norte 32 Norte 0 -- -- 78
2020-09-26 20:00:00 13.8 14 Nordeste 32 Norte 0.4 -- -- 83
2020-09-26 19:00:00 13.1 10 Nordeste 23 Norte 1.6 -- -- 88
2020-09-26 18:00:00 14 7 Norte 27 Norte 0 -- -- 77
2020-09-26 17:00:00 14.3 10 Norte 22 Noroeste 0.2 -- -- 69
2020-09-26 16:00:00 14.7 6 Norte 22 Norte 0 -- -- 66
2020-09-26 15:00:00 14.1 6 Norte 19 Oeste 0 -- -- 73
2020-09-26 14:00:00 14.4 6 Oeste 21 Oeste 0 -- -- 67
2020-09-26 13:00:00 14 7 Norte 22 Sudoeste 0 -- -- 65
2020-09-26 12:00:00 12.7 7 Nordeste 18 Sudeste 0 -- -- 69
2020-09-26 11:00:00 12 6 Noroeste 18 Oeste 0 -- -- 74
2020-09-26 10:00:00 10.4 4 Norte 11 Oeste 0 -- -- 76
2020-09-26 09:00:00 9.8 4 Norte 14 Norte 0 -- -- 84
2020-09-26 08:00:00 9.4 5 Norte 19 Noroeste 0 -- -- 83
2020-09-26 07:00:00 9.3 7 Norte 18 Oeste 0 -- -- 82
2020-09-26 06:00:00 9.3 6 Norte 23 Noroeste 0 -- -- 79
2020-09-26 05:00:00 8.6 5 Norte 14 Noroeste 0 -- -- 85
2020-09-26 04:00:00 8.8 5 Noroeste 27 Noroeste 0 -- -- 87
2020-09-26 03:00:00 9.1 10 Norte 24 Noroeste 0 -- -- 82
2020-09-26 02:00:00 9.1 10 Norte 25 Noroeste 0 -- -- 82
2020-09-26 01:00:00 9.4 6 Norte 23 Sudoeste 0 -- -- 81
2020-09-26 00:00:00 9.1 5 Norte 20 Oeste 0 -- -- 83
2020-09-25 23:00:00 9.2 7 Norte 19 Noroeste 0 -- -- 84
2020-09-25 22:00:00 9.5 9 Norte 27 Noroeste 0 -- -- 80
2020-09-25 21:00:00 9.4 8 Noroeste 19 Noroeste 0 -- -- 80
2020-09-25 20:00:00 10 8 Noroeste 26 Oeste 0 -- -- 77
2020-09-25 19:00:00 11.6 10 Noroeste 34 Noroeste 0 -- -- 68
2020-09-25 18:00:00 12.1 13 Noroeste 32 Noroeste 0 -- -- 66
2020-09-25 17:00:00 11.4 13 Norte 39 Noroeste 0 -- -- 72
2020-09-25 16:00:00 12.8 9 Norte 34 Sur 0.2 -- -- 70
2020-09-25 15:00:00 10.8 7 Norte 28 Oeste 0.4 -- -- 80
2020-09-25 14:00:00 10.9 12 Noroeste 37 Oeste 0 -- -- 72
2020-09-25 13:00:00 11 11 Noroeste 34 Norte 0 -- -- 72
2020-09-25 12:00:00 10.2 9 Norte 27 Noroeste 0 -- -- 73
2020-09-25 11:00:00 10.8 9 Noroeste 32 Noroeste 0 -- -- 66
2020-09-25 10:00:00 9.8 10 Norte 28 Noroeste 0 -- -- 69
2020-09-25 09:00:00 10 6 Norte 30 Sudoeste 0 -- -- 64
2020-09-25 08:00:00 9.9 7 Noroeste 36 Noroeste 0 -- -- 65
2020-09-25 07:00:00 9.7 10 Norte 25 Norte 0 -- -- 66
2020-09-25 06:00:00 9.8 7 Norte 36 Norte 0 -- -- 70
2020-09-25 05:00:00 9.6 10 Norte 34 Norte 0.2 -- -- 77
2020-09-25 04:00:00 9.6 14 Norte 32 Norte 0 -- -- 82
2020-09-25 03:00:00 10.4 9 Norte 32 Norte 0 -- -- 82
2020-09-25 02:00:00 11.3 13 Norte 33 Norte 0 -- -- 73
2020-09-25 01:00:00 13.8 9 Norte 34 Noroeste 0 -- -- 69
2020-09-25 00:00:00 15.1 9 Norte 28 Oeste 0 -- -- 57
2020-09-24 23:00:00 15.9 12 Norte 30 Noroeste 0 -- -- 52
2020-09-24 22:00:00 16.8 10 Norte 27 Noroeste 0 -- -- 47
2020-09-24 21:00:00 17.5 8 Norte 24 Norte 0 -- -- 47
2020-09-24 20:00:00 18.3 8 Norte 27 Oeste 0 -- -- 45
2020-09-24 19:00:00 19.5 10 Este 32 Sudoeste 0 -- -- 45
2020-09-24 18:00:00 20.2 8 Norte 31 Sudeste 0 -- -- 45
2020-09-24 17:00:00 20.8 10 Norte 35 Sur 0 -- -- 45
2020-09-24 16:00:00 22 10 Sudeste 44 Sur 0 -- -- 41
2020-09-24 15:00:00 20.9 11 Noroeste 33 Sudeste 0 -- -- 45
2020-09-24 14:00:00 19.3 7 Noroeste 23 Oeste 0 -- -- 56
2020-09-24 13:00:00 18.7 6 Sudeste 23 Sudeste 0 -- -- 59
2020-09-24 12:00:00 17.4 9 Noroeste 22 Noroeste 0 -- -- 61
2020-09-24 11:00:00 17.5 7 Sudeste 27 Norte 0 -- -- 63
2020-09-24 10:00:00 15.8 9 Norte 26 Norte 0 -- -- 67
2020-09-24 09:00:00 15.1 8 Norte 19 Norte 0 -- -- 74
2020-09-24 08:00:00 15.4 6 Noroeste 16 Noroeste 0 -- -- 75
2020-09-24 07:00:00 15.5 5 Norte 16 Noroeste 0 -- -- 76
2020-09-24 06:00:00 16.2 6 Norte 18 Noroeste 0 -- -- 76
2020-09-24 05:00:00 16.5 6 Norte 18 Noroeste 0 -- -- 75
2020-09-24 04:00:00 17.1 5 Norte 17 Noroeste 0 -- -- 73
2020-09-24 03:00:00 17.2 5 Norte 14 Noroeste 0 -- -- 72
2020-09-24 02:00:00 17.3 5 Norte 13 Norte 0 -- -- 70
2020-09-24 01:00:00 17.8 5 Norte 10 Norte 0 -- -- 70
2020-09-24 00:00:00 18.2 3 Noroeste 12 Norte 0 -- -- 72
2020-09-23 23:00:00 18.8 5 Norte 10 Noroeste 0 -- -- 69
2020-09-23 22:00:00 19 4 Norte 15 Norte 0 -- -- 67
2020-09-23 21:00:00 19.4 5 Norte 28 Norte 0 -- -- 64
2020-09-23 20:00:00 19.6 10 Norte 26 Nordeste 0 -- -- 65
2020-09-23 19:00:00 19.1 5 Norte 23 Norte 0.4 -- -- 68
2020-09-23 18:00:00 22.5 4 Norte 20 Sudoeste 0 -- -- 55
2020-09-23 17:00:00 24.1 5 Sudoeste 21 Sur 0 -- -- 50
2020-09-23 16:00:00 22.7 6 Sudeste 30 Sur 0 -- -- 56
2020-09-23 15:00:00 20.8 8 Sur 20 Sur 0 -- -- 65
2020-09-23 14:00:00 19.4 7 Norte 21 Sur 0 -- -- 69
2020-09-23 13:00:00 20 5 Noroeste 14 Sudoeste 0 -- -- 63
2020-09-23 12:00:00 19.9 3 Sur 12 Sudoeste 0 -- -- 64
2020-09-23 11:00:00 20 3 Sur 7 Sur 0 -- -- 64
2020-09-23 10:00:00 16.6 3 Sur 9 Sur 0 -- -- 73
2020-09-23 09:00:00 13.4 3 Nordeste 22 Norte 0 -- -- 87
2020-09-23 08:00:00 15.8 7 Norte 13 Norte 0 -- -- 76
2020-09-23 07:00:00 13.8 4 Noroeste 8 Sudoeste 0 -- -- 81
2020-09-23 06:00:00 16.3 5 Norte 13 Noroeste 0 -- -- 71
2020-09-23 05:00:00 15.4 4 Noroeste 10 Norte 0 -- -- 71
2020-09-23 04:00:00 15 5 Norte 10 Noroeste 0 -- -- 70
2020-09-23 03:00:00 14.5 5 Noroeste 12 Norte 0 -- -- 74
2020-09-23 02:00:00 13.8 0 Calma 7 Norte 0 -- -- 79
2020-09-23 01:00:00 15.2 4 Norte 9 Norte 0 -- -- 72
2020-09-23 00:00:00 15.6 6 Norte 8 Noroeste 0 -- -- 70
2020-09-22 23:00:00 16.2 5 Noroeste 8 Norte 0 -- -- 67
2020-09-22 22:00:00 18.5 4 Norte 9 Noroeste 0 -- -- 58
2020-09-22 21:00:00 19.9 4 Norte 10 Nordeste 0 -- -- 52
2020-09-22 20:00:00 20.1 4 Norte 12 Norte 0 -- -- 54
2020-09-22 19:00:00 22.8 2 Noroeste 9 Norte 0 -- -- 47
2020-09-22 18:00:00 23 4 Oeste 13 Sur 0 -- -- 45
2020-09-22 17:00:00 23.7 5 Noroeste 16 Norte 0 -- -- 44
2020-09-22 16:00:00 23.3 5 Sudoeste 15 Sudoeste 0 -- -- 49
2020-09-22 15:00:00 22.5 6 Sudoeste 18 Sur 0 -- -- 50
2020-09-22 14:00:00 21.4 7 Sur 13 Sur 0 -- -- 56
2020-09-22 13:00:00 19.5 4 Sur 12 Sudoeste 0 -- -- 67
2020-09-22 12:00:00 17.6 5 Sudoeste 14 Sur 0 -- -- 76
2020-09-22 11:00:00 16.3 6 Oeste 13 Sur 0 -- -- 79
2020-09-22 10:00:00 15.2 2 Sur 5 Sur 0 -- -- 84
2020-09-22 09:00:00 12.3 3 Nordeste 5 Nordeste 0 -- -- 92
2020-09-22 08:00:00 11 0 Calma 5 Nordeste 0 -- -- 91
2020-09-22 07:00:00 11.6 0 Calma 7 Este 0 -- -- 90
2020-09-22 06:00:00 12.8 0 Calma 8 Nordeste 0 -- -- 88
2020-09-22 05:00:00 12.4 0 Calma 5 Nordeste 0 -- -- 88
2020-09-22 04:00:00 13 2 Norte 7 Norte 0 -- -- 86
2020-09-22 03:00:00 13.9 2 Nordeste 5 Nordeste 0 -- -- 85
2020-09-22 02:00:00 14 0 Calma 6 Norte 0 -- -- 86
2020-09-22 01:00:00 14.3 0 Calma 5 Norte 0 -- -- 84
2020-09-22 00:00:00 15.4 3 Oeste 18 Nordeste 0 -- -- 80
2020-09-21 23:00:00 16.8 12 Nordeste 32 Nordeste 0 -- -- 72
2020-09-21 22:00:00 16.9 13 Nordeste 31 Norte 0 -- -- 72
2020-09-21 21:00:00 17.2 13 Nordeste 28 Nordeste 0 -- -- 68
2020-09-21 20:00:00 18.3 11 Nordeste 23 Norte 0 -- -- 66
2020-09-21 19:00:00 20 9 Nordeste 22 Norte 0 -- -- 60
2020-09-21 18:00:00 21 10 Nordeste 20 Nordeste 0 -- -- 58
2020-09-21 17:00:00 22.4 6 Oeste 16 Norte 0 -- -- 53
2020-09-21 16:00:00 21.9 6 Norte 17 Norte 0 -- -- 56
2020-09-21 15:00:00 21.1 6 Noroeste 17 Noroeste 0 -- -- 57
2020-09-21 14:00:00 20.2 6 Noroeste 20 Noroeste 0 -- -- 59
2020-09-21 13:00:00 18.8 8 Oeste 18 Noroeste 0 -- -- 70
2020-09-21 12:00:00 17.1 6 Oeste 13 Sudoeste 0 -- -- 78
2020-09-21 11:00:00 15.9 5 Oeste 9 Sur 0 -- -- 87
2020-09-21 10:00:00 14.6 2 Sudoeste 6 Oeste 0 -- -- 93
2020-09-21 09:00:00 13.3 4 Noroeste 9 Sudoeste 0 -- -- 94
2020-09-21 08:00:00 13.5 5 Norte 11 Norte 0 -- -- 91
2020-09-21 07:00:00 13.2 0 Calma 17 Norte 0 -- -- 90
2020-09-21 06:00:00 12.8 4 Norte 12 Noroeste 0 -- -- 95
2020-09-21 05:00:00 13.3 4 Oeste 12 Oeste 0 -- -- 94
2020-09-21 04:00:00 13.4 3 Norte 6 Este 0 -- -- 92
2020-09-21 03:00:00 14.2 2 Sur 9 Sudeste 0 -- -- 89
2020-09-21 02:00:00 14.7 0 Calma 6 Norte 0 -- -- 89
2020-09-21 01:00:00 16 3 Oeste 14 Nordeste 0 -- -- 87
2020-09-21 00:00:00 16.4 5 Nordeste 17 Nordeste 0.2 -- -- 83
2020-09-20 23:00:00 17.2 9 Nordeste 23 Nordeste 0 -- -- 77
2020-09-20 22:00:00 17.1 3 Sur 18 Norte 0 -- -- 80
2020-09-20 21:00:00 17.4 7 Nordeste 20 Nordeste 0 -- -- 78
2020-09-20 20:00:00 18.3 0 Calma 3 Sur 0 -- -- 81
2020-09-20 19:00:00 18.8 0 Calma 5 Sudoeste 0 -- -- 77
2020-09-20 18:00:00 18.3 0 Calma 9 Oeste 0.2 -- -- 78
2020-09-20 17:00:00 17.9 3 Norte 17 Sur 0.2 -- -- 86
2020-09-20 16:00:00 20.6 7 Sur 18 Sur 0 -- -- 69
2020-09-20 15:00:00 20.3 5 Sudoeste 13 Sudoeste 0 -- -- 68
2020-09-20 14:00:00 20.3 5 Sudoeste 15 Oeste 0 -- -- 65
2020-09-20 13:00:00 20.7 8 Oeste 20 Oeste 0 -- -- 66
2020-09-20 12:00:00 19 7 Sudoeste 15 Sudoeste 0 -- -- 74
2020-09-20 11:00:00 17.8 6 Sudoeste 14 Sudoeste 0 -- -- 76
2020-09-20 10:00:00 15.7 5 Oeste 9 Sur 0 -- -- 85
2020-09-20 09:00:00 14.7 4 Sudoeste 9 Oeste 0.2 -- -- 87
2020-09-20 08:00:00 13.8 6 Norte 13 Norte 0 -- -- 89
2020-09-20 07:00:00 15.3 5 Norte 21 Norte 0 -- -- 81
2020-09-20 06:00:00 15.7 6 Norte 17 Norte 0 -- -- 82
2020-09-20 05:00:00 15.6 8 Norte 19 Noroeste 0 -- -- 82
2020-09-20 04:00:00 15.4 6 Norte 16 Nordeste 0 -- -- 85
2020-09-20 03:00:00 15.4 4 Norte 13 Norte 0 -- -- 85
2020-09-20 02:00:00 15.4 5 Norte 16 Norte 0 -- -- 86
2020-09-20 01:00:00 14.8 4 Norte 12 Norte 0 -- -- 88
2020-09-20 00:00:00 13.9 5 Norte 10 Noroeste 0 -- -- 92
2020-09-19 23:00:00 14.2 3 Noroeste 10 Norte 0 -- -- 92
2020-09-19 22:00:00 14.4 3 Noroeste 8 Norte 0 -- -- 94
2020-09-19 21:00:00 14.3 3 Noroeste 10 Norte 1 -- -- 93
2020-09-19 20:00:00 14.5 4 Noroeste 14 Norte 4 -- -- 92
2020-09-19 19:00:00 15.5 6 Norte 18 Noroeste 3.6 -- -- 88
2020-09-19 18:00:00 16.5 8 Norte 21 Norte 0 -- -- 84
2020-09-19 17:00:00 15.6 8 Nordeste 17 Norte 4.4 -- -- 89
2020-09-19 16:00:00 19.1 5 Oeste 13 Noroeste 0 -- -- 78
2020-09-19 15:00:00 17.2 3 Noroeste 12 Noroeste 0.2 -- -- 85
2020-09-19 14:00:00 17 3 Nordeste 18 Este 2.2 -- -- 86
2020-09-19 13:00:00 17.2 8 Sudeste 25 Sudeste 0.2 -- -- 80
2020-09-19 12:00:00 15.8 4 Este 13 Nordeste 0 -- -- 83
2020-09-19 11:00:00 15.3 5 Este 19 Este 1.2 -- -- 84
2020-09-19 10:00:00 17.1 6 Sudeste 19 Sudeste 0 -- -- 70
2020-09-19 09:00:00 15.5 2 Este 12 Este 0 -- -- 81
2020-09-19 08:00:00 14.2 3 Nordeste 8 Este 0 -- -- 84
2020-09-19 07:00:00 14.2 4 Nordeste 12 Este 0 -- -- 87
2020-09-19 06:00:00 14.5 4 Nordeste 11 Este 0.2 -- -- 88
2020-09-19 05:00:00 15 4 Este 17 Este 0.6 -- -- 86
2020-09-19 04:00:00 15.2 3 Nordeste 7 Este 0 -- -- 82
2020-09-19 03:00:00 15.3 0 Calma 4 Este 0 -- -- 80
2020-09-19 02:00:00 15.5 2 Nordeste 5 Nordeste 0 -- -- 80
2020-09-19 01:00:00 16.2 0 Calma 10 Este 0 -- -- 81
2020-09-19 00:00:00 18 4 Este 24 Sudeste 0 -- -- 74
2020-09-18 23:00:00 19.2 10 Este 34 Este 0 -- -- 69
2020-09-18 22:00:00 19.9 16 Este 34 Este 0 -- -- 66
2020-09-18 21:00:00 20 16 Este 36 Este 0 -- -- 66
2020-09-18 20:00:00 20.7 19 Este 39 Este 0 -- -- 66
2020-09-18 19:00:00 23.5 5 Sudeste 12 Este 0 -- -- 57
2020-09-18 18:00:00 23.6 6 Sudoeste 15 Oeste 0 -- -- 59
2020-09-18 17:00:00 22.2 6 Sudoeste 13 Noroeste 0 -- -- 64
2020-09-18 16:00:00 20.4 5 Oeste 23 Noroeste 0 -- -- 65
2020-09-18 15:00:00 22.4 6 Sudoeste 14 Noroeste 0 -- -- 64
2020-09-18 14:00:00 21.1 6 Oeste 22 Norte 0 -- -- 56
2020-09-18 13:00:00 18.9 8 Norte 25 Norte 0 -- -- 63
2020-09-18 12:00:00 17.3 9 Noroeste 19 Norte 0 -- -- 70
2020-09-18 11:00:00 19.2 10 Sudeste 28 Este 0 -- -- 81
2020-09-18 10:00:00 18 6 Sudeste 36 Sudeste 0 -- -- 84
2020-09-18 09:00:00 19.2 19 Este 39 Este 0 -- -- 74
2020-09-18 08:00:00 18.8 14 Este 33 Sudeste 0 -- -- 77
2020-09-18 07:00:00 17.4 5 Este 17 Este 0.2 -- -- 85
2020-09-18 06:00:00 16.8 5 Este 15 Este 3 -- -- 90
2020-09-18 05:00:00 16.6 3 Nordeste 9 Nordeste 1.6 -- -- 91
2020-09-18 04:00:00 16.9 2 Nordeste 11 Este 2 -- -- 92
2020-09-18 03:00:00 17.3 4 Norte 9 Norte 3.2 -- -- 90
2020-09-18 02:00:00 18.3 13 Sur 32 Este 2.6 -- -- 84
2020-09-18 01:00:00 23.8 15 Este 28 Este 0 -- -- 49
2020-09-18 00:00:00 23.9 14 Este 33 Sudeste 0 -- -- 48
2020-09-17 23:00:00 24.5 14 Este 34 Sudeste 0 -- -- 46
2020-09-17 22:00:00 24.4 19 Este 42 Este 0 -- -- 48
2020-09-17 21:00:00 25.3 15 Este 37 Este 0 -- -- 45
2020-09-17 20:00:00 26 16 Este 35 Este 0 -- -- 44
2020-09-17 19:00:00 26.8 13 Sudeste 36 Este 0 -- -- 43
2020-09-17 18:00:00 27.3 15 Este 35 Este 0 -- -- 40
2020-09-17 17:00:00 27.4 14 Sudeste 32 Este 0 -- -- 41
2020-09-17 16:00:00 28.2 15 Este 33 Este 0 -- -- 40
2020-09-17 15:00:00 29.5 13 Sudeste 33 Este 0 -- -- 37
2020-09-17 14:00:00 27.9 14 Sudeste 32 Este 0 -- -- 44
2020-09-17 13:00:00 26.4 14 Sudeste 32 Sudeste 0 -- -- 49
2020-09-17 12:00:00 26.2 15 Sudeste 35 Este 0 -- -- 50
2020-09-17 11:00:00 20.6 3 Sudoeste 9 Sudoeste 0 -- -- 77
2020-09-17 10:00:00 19.4 3 Sudeste 9 Este 0 -- -- 78
2020-09-17 09:00:00 19.2 5 Oeste 11 Oeste 0 -- -- 77
2020-09-17 08:00:00 18.6 3 Nordeste 9 Oeste 0 -- -- 78
2020-09-17 07:00:00 18 0 Calma 12 Oeste 0 -- -- 81
2020-09-17 06:00:00 17.9 3 Nordeste 14 Este 0.2 -- -- 81
2020-09-17 05:00:00 22.3 7 Este 18 Nordeste 0 -- -- 58
2020-09-17 04:00:00 19.7 6 Sur 12 Sur 0 -- -- 68
2020-09-17 03:00:00 20.9 3 Nordeste 9 Este 0 -- -- 61
2020-09-17 02:00:00 20.8 4 Nordeste 8 Nordeste 0 -- -- 61
2020-09-17 01:00:00 20.5 3 Norte 9 Sudeste 0 -- -- 62
2020-09-17 00:00:00 23.7 5 Sudeste 21 Nordeste 0 -- -- 54
2020-09-16 23:00:00 25.1 8 Nordeste 22 Nordeste 0 -- -- 50
2020-09-16 22:00:00 25 7 Nordeste 20 Nordeste 0 -- -- 47
2020-09-16 21:00:00 24.6 4 Nordeste 10 Nordeste 0 -- -- 48
2020-09-16 20:00:00 25.7 3 Nordeste 10 Norte 0 -- -- 45
2020-09-16 19:00:00 29.1 6 Sudeste 13 Sur 0 -- -- 36
2020-09-16 18:00:00 30.1 7 Sudeste 14 Sur 0 -- -- 34
2020-09-16 17:00:00 30.3 3 Sur 13 Sur 0 -- -- 32
2020-09-16 16:00:00 31.2 6 Norte 14 Sudeste 0 -- -- 29
2020-09-16 15:00:00 30 8 Sur 17 Sur 0 -- -- 34
2020-09-16 14:00:00 29 8 Sur 19 Sudeste 0 -- -- 43
2020-09-16 13:00:00 26.5 5 Sur 10 Sur 0 -- -- 51
2020-09-16 12:00:00 24.4 5 Sur 13 Sur 0 -- -- 56
2020-09-16 11:00:00 22.2 3 Sur 9 Sudoeste 0 -- -- 63
2020-09-16 10:00:00 19.1 3 Sur 5 Sudeste 0 -- -- 75
2020-09-16 09:00:00 16.4 0 Calma 3 Nordeste 0 -- -- 84
2020-09-16 08:00:00 14.7 2 Nordeste 3 Norte 0 -- -- 88
2020-09-16 07:00:00 15.1 0 Calma 4 Nordeste 0 -- -- 85
2020-09-16 06:00:00 15.3 2 Nordeste 4 Nordeste 0 -- -- 85
2020-09-16 05:00:00 15.9 0 Calma 3 Nordeste 0 -- -- 82
2020-09-16 04:00:00 16.5 0 Calma 7 Norte 0 -- -- 80
2020-09-16 03:00:00 17.1 2 Nordeste 4 Nordeste 0 -- -- 77
2020-09-16 02:00:00 17.4 2 Norte 4 Norte 0 -- -- 76
2020-09-16 01:00:00 18.4 0 Calma 6 Este 0 -- -- 70
2020-09-16 00:00:00 19.6 2 Norte 5 Nordeste 0 -- -- 64
2020-09-15 23:00:00 21.3 2 Norte 8 Nordeste 0 -- -- 58
2020-09-15 22:00:00 22.6 3 Nordeste 13 Nordeste 0 -- -- 55
2020-09-15 21:00:00 23.9 7 Nordeste 13 Norte 0 -- -- 55
2020-09-15 20:00:00 24.5 2 Nordeste 8 Sur 0 -- -- 50
2020-09-15 19:00:00 28.5 4 Sudoeste 10 Sur 0 -- -- 39
2020-09-15 18:00:00 29.6 8 Sur 16 Sudoeste 0 -- -- 36
2020-09-15 17:00:00 28.7 2 Oeste 16 Sudoeste 0 -- -- 37
2020-09-15 16:00:00 29.1 7 Sur 18 Sur 0 -- -- 37
2020-09-15 15:00:00 28.8 4 Sur 18 Sur 0 -- -- 37
2020-09-15 14:00:00 28 8 Sur 17 Sudeste 0 -- -- 43
2020-09-15 13:00:00 26.3 9 Sudeste 21 Sur 0 -- -- 47
2020-09-15 12:00:00 25 12 Sudeste 24 Sur 0 -- -- 51
2020-09-15 11:00:00 22.8 9 Sudeste 17 Sudeste 0 -- -- 60
2020-09-15 10:00:00 20.5 5 Sur 10 Oeste 0 -- -- 72
2020-09-15 09:00:00 18.9 5 Este 14 Este 0 -- -- 73
2020-09-15 08:00:00 16.2 3 Nordeste 18 Nordeste 0 -- -- 85
2020-09-15 07:00:00 17.1 5 Este 16 Sudeste 1.4 -- -- 85
2020-09-15 06:00:00 18.3 4 Este 16 Oeste 0 -- -- 72
2020-09-15 05:00:00 19.6 2 Noroeste 14 Norte 0 -- -- 63
2020-09-15 04:00:00 20.4 5 Sudoeste 19 Sudeste 0 -- -- 60
2020-09-15 03:00:00 21.5 8 Nordeste 26 Noroeste 0 -- -- 52
2020-09-15 02:00:00 23.8 5 Sur 16 Sudeste 0 -- -- 44
2020-09-15 01:00:00 24.2 8 Oeste 21 Sudeste 0 -- -- 41
2020-09-15 00:00:00 25.9 7 Este 28 Este 0 -- -- 36
2020-09-14 23:00:00 26.1 14 Este 24 Sudeste 0 -- -- 35
2020-09-14 22:00:00 26.1 14 Este 31 Este 0 -- -- 36
2020-09-14 21:00:00 26.4 14 Este 31 Este 0 -- -- 35
2020-09-14 20:00:00 27.2 12 Este 30 Este 0 -- -- 34
2020-09-14 19:00:00 27.8 13 Este 31 Este 0 -- -- 32
2020-09-14 18:00:00 27.7 12 Este 34 Este 0 -- -- 33
2020-09-14 17:00:00 28.6 13 Este 32 Sudeste 0 -- -- 33
2020-09-14 16:00:00 29.7 17 Este 33 Este 0 -- -- 33
2020-09-14 15:00:00 29 13 Sudeste 35 Sudeste 0 -- -- 34
2020-09-14 14:00:00 29.7 16 Sudeste 34 Este 0 -- -- 32
2020-09-14 13:00:00 28.3 15 Sudeste 37 Este 0 -- -- 37
2020-09-14 12:00:00 27.2 16 Este 37 Sudeste 0 -- -- 39
2020-09-14 11:00:00 25.2 17 Este 31 Este 0 -- -- 42
2020-09-14 10:00:00 24.7 9 Sudoeste 31 Sudeste 0 -- -- 41
2020-09-14 09:00:00 20.4 7 Noroeste 15 Noroeste 0 -- -- 52
2020-09-14 08:00:00 19.8 8 Noroeste 14 Noroeste 0 -- -- 50
2020-09-14 07:00:00 20.7 8 Noroeste 14 Oeste 0 -- -- 47
2020-09-14 06:00:00 22.2 5 Sudeste 25 Este 0 -- -- 43
2020-09-14 05:00:00 24 11 Este 32 Este 0 -- -- 39
2020-09-14 04:00:00 24.3 16 Este 32 Sudeste 0 -- -- 40
2020-09-14 03:00:00 25 9 Sudeste 28 Este 0 -- -- 35
2020-09-14 02:00:00 25.7 10 Sudeste 34 Este 0 -- -- 30
2020-09-14 01:00:00 26.5 14 Este 30 Este 0 -- -- 29
2020-09-14 00:00:00 26.9 13 Este 32 Sudeste 0 -- -- 30
2020-09-13 23:00:00 27.4 13 Este 34 Este 0 -- -- 29
2020-09-13 22:00:00 28.2 15 Este 37 Sudeste 0 -- -- 27
2020-09-13 21:00:00 28.5 15 Este 39 Este 0 -- -- 26
2020-09-13 20:00:00 28.9 14 Este 30 Sudeste 0 -- -- 30
2020-09-13 19:00:00 30.1 12 Sudeste 28 Este 0 -- -- 31
2020-09-13 18:00:00 32.1 13 Sudeste 26 Sudeste 0 -- -- 31
2020-09-13 17:00:00 32.6 13 Sudeste 27 Sudeste 0 -- -- 31
2020-09-13 16:00:00 30.8 13 Sudeste 33 Este 0 -- -- 34
2020-09-13 15:00:00 30.2 13 Sudeste 26 Sur 0 -- -- 37
2020-09-13 14:00:00 29.2 14 Sudeste 28 Sudeste 0 -- -- 39
2020-09-13 13:00:00 27.4 13 Sur 21 Sur 0 -- -- 43
2020-09-13 12:00:00 22.9 6 Sur 14 Sur 0 -- -- 52
2020-09-13 11:00:00 19.2 5 Sur 9 Sudeste 0 -- -- 60
2020-09-13 10:00:00 17.5 2 Sur 4 Sur 0 -- -- 68
2020-09-13 09:00:00 14.3 0 Calma 3 Sudoeste 0 -- -- 82
2020-09-13 08:00:00 11.8 0 Calma 3 Norte 0 -- -- 90
2020-09-13 07:00:00 12.1 0 Calma 4 Este 0 -- -- 88
2020-09-13 06:00:00 12.4 0 Calma 4 Nordeste 0 -- -- 87
2020-09-13 05:00:00 13.2 0 Calma 4 Este 0 -- -- 84
2020-09-13 04:00:00 14.4 0 Calma 4 Norte 0 -- -- 80
2020-09-13 03:00:00 14.8 0 Calma 4 Nordeste 0 -- -- 76
2020-09-13 02:00:00 16.2 2 Nordeste 6 Norte 0 -- -- 72
2020-09-13 01:00:00 16.3 4 Norte 7 Norte 0 -- -- 72
2020-09-13 00:00:00 18.3 0 Calma 9 Nordeste 0 -- -- 64
2020-09-12 23:00:00 19.2 3 Nordeste 13 Norte 0 -- -- 55
2020-09-12 22:00:00 23 8 Nordeste 21 Nordeste 0 -- -- 45
2020-09-12 21:00:00 23.4 10 Nordeste 27 Norte 0 -- -- 46
2020-09-12 20:00:00 25.2 11 Norte 27 Norte 0 -- -- 36
2020-09-12 19:00:00 27.7 11 Nordeste 32 Nordeste 0 -- -- 27
2020-09-12 18:00:00 29.1 10 Norte 24 Noroeste 0 -- -- 26
2020-09-12 17:00:00 30 4 Norte 20 Nordeste 0 -- -- 26
2020-09-12 16:00:00 30 6 Este 27 Este 0 -- -- 28
2020-09-12 15:00:00 29 8 Sudeste 20 Sur 0 -- -- 38
2020-09-12 14:00:00 26.5 8 Sur 19 Sur 0 -- -- 47
2020-09-12 13:00:00 25 7 Sur 16 Sur 0 -- -- 52
2020-09-12 12:00:00 23.4 6 Sur 11 Sudeste 0 -- -- 58
2020-09-12 11:00:00 20.4 3 Sudeste 6 Sur 0 -- -- 68
2020-09-12 10:00:00 16.8 2 Sur 7 Sudoeste 0 -- -- 81
2020-09-12 09:00:00 13 4 Oeste 9 Oeste 0 -- -- 92
2020-09-12 08:00:00 11.3 2 Nordeste 4 Noroeste 0 -- -- 94
2020-09-12 07:00:00 11.7 2 Nordeste 4 Nordeste 0 -- -- 93
2020-09-12 06:00:00 12.3 0 Calma 5 Oeste 0 -- -- 89
2020-09-12 05:00:00 12.7 0 Calma 6 Norte 0 -- -- 88
2020-09-12 04:00:00 13.5 0 Calma 4 Norte 0 -- -- 87
2020-09-12 03:00:00 14.2 0 Calma 4 Este 0 -- -- 84
2020-09-12 02:00:00 15.4 2 Norte 6 Oeste 0 -- -- 81
2020-09-12 01:00:00 18.8 5 Sudeste 19 Nordeste 0 -- -- 68
2020-09-12 00:00:00 19.2 7 Nordeste 15 Nordeste 0 -- -- 68
2020-09-11 23:00:00 17.6 3 Norte 12 Noroeste 0 -- -- 65
2020-09-11 22:00:00 19.4 2 Norte 22 Nordeste 0 -- -- 59
2020-09-11 21:00:00 22.4 12 Nordeste 30 Nordeste 0 -- -- 54
2020-09-11 20:00:00 23.4 12 Nordeste 32 Norte 0 -- -- 56
2020-09-11 19:00:00 26.9 8 Nordeste 26 Norte 0 -- -- 42
2020-09-11 18:00:00 28 6 Norte 29 Norte 0 -- -- 37
2020-09-11 17:00:00 28 9 Norte 26 Norte 0 -- -- 37
2020-09-11 16:00:00 27.5 9 Noroeste 24 Noroeste 0 -- -- 37
2020-09-11 15:00:00 27.5 17 Sudoeste 32 Oeste 0 -- -- 41
2020-09-11 14:00:00 26.8 12 Sur 24 Sur 0 -- -- 48
2020-09-11 13:00:00 23.9 7 Sudoeste 19 Oeste 0 -- -- 55
2020-09-11 12:00:00 22.8 8 Sudeste 22 Este 0 -- -- 58
2020-09-11 11:00:00 20 5 Sudoeste 10 Oeste 0 -- -- 67
2020-09-11 10:00:00 16.9 3 Sudoeste 9 Sudoeste 0 -- -- 75
2020-09-11 09:00:00 13.8 0 Calma 6 Oeste 0 -- -- 85
2020-09-11 08:00:00 12.6 0 Calma 6 Oeste 0 -- -- 89
2020-09-11 07:00:00 13.5 2 Nordeste 6 Nordeste 0 -- -- 86
2020-09-11 06:00:00 13.4 2 Norte 5 Nordeste 0 -- -- 86
2020-09-11 05:00:00 13.8 2 Nordeste 7 Nordeste 0 -- -- 83
2020-09-11 04:00:00 14.8 3 Noroeste 8 Noroeste 0 -- -- 79
2020-09-11 03:00:00 15 2 Nordeste 8 Noroeste 0 -- -- 77
2020-09-11 02:00:00 15.6 4 Norte 14 Este 0 -- -- 78
2020-09-11 01:00:00 15.4 3 Norte 9 Noroeste 0 -- -- 73
2020-09-11 00:00:00 16 2 Nordeste 9 Oeste 0 -- -- 69
2020-09-10 23:00:00 19.2 8 Norte 14 Nordeste 0 -- -- 58
2020-09-10 22:00:00 20.4 6 Nordeste 26 Norte 0 -- -- 51
2020-09-10 21:00:00 21.2 16 Nordeste 31 Nordeste 0 -- -- 50
2020-09-10 20:00:00 22.7 6 Nordeste 22 Norte 0 -- -- 49
2020-09-10 19:00:00 26.1 6 Este 26 Norte 0 -- -- 39
2020-09-10 18:00:00 27.1 8 Norte 27 Noroeste 0 -- -- 34
2020-09-10 17:00:00 27.6 8 Noroeste 27 Nordeste 0 -- -- 33
2020-09-10 16:00:00 27 10 Noroeste 24 Noroeste 0 -- -- 33
2020-09-10 15:00:00 27.3 9 Sur 23 Sudeste 0 -- -- 34
2020-09-10 14:00:00 26.5 12 Este 29 Sur 0 -- -- 37
2020-09-10 13:00:00 25.6 7 Sur 19 Sudoeste 0 -- -- 39
2020-09-10 12:00:00 22.9 6 Oeste 11 Oeste 0 -- -- 44
2020-09-10 11:00:00 19.7 4 Sudoeste 10 Oeste 0 -- -- 52
2020-09-10 10:00:00 17.9 3 Sur 8 Sudoeste 0 -- -- 60
2020-09-10 09:00:00 13.8 3 Oeste 6 Este 0 -- -- 72
2020-09-10 08:00:00 11.8 2 Norte 6 Sur 0 -- -- 73
2020-09-10 07:00:00 12.7 0 Calma 5 Noroeste 0 -- -- 71
2020-09-10 06:00:00 12.6 4 Noroeste 10 Noroeste 0 -- -- 76
2020-09-10 05:00:00 13 0 Calma 6 Nordeste 0 -- -- 71
2020-09-10 04:00:00 14.1 0 Calma 10 Norte 0 -- -- 66
2020-09-10 03:00:00 15 3 Norte 8 Noroeste 0 -- -- 63
2020-09-10 02:00:00 16.9 6 Sudoeste 18 Oeste 0 -- -- 59
2020-09-10 01:00:00 17.4 5 Nordeste 15 Noroeste 0 -- -- 54
2020-09-10 00:00:00 18 6 Noroeste 13 Oeste 0 -- -- 59
2020-09-09 23:00:00 19.2 8 Noroeste 27 Nordeste 0 -- -- 58
2020-09-09 22:00:00 20.3 14 Nordeste 35 Norte 0 -- -- 56
2020-09-09 21:00:00 20.6 18 Nordeste 39 Nordeste 0 -- -- 57
2020-09-09 20:00:00 22.1 17 Norte 37 Norte 0 -- -- 52
2020-09-09 19:00:00 25.6 9 Nordeste 30 Nordeste 0 -- -- 43
2020-09-09 18:00:00 26.8 14 Norte 29 Noroeste 0 -- -- 38
2020-09-09 17:00:00 27.7 8 Nordeste 26 Noroeste 0 -- -- 31
2020-09-09 16:00:00 27.6 8 Noroeste 27 Oeste 0 -- -- 30
2020-09-09 15:00:00 27.7 13 Sudoeste 27 Oeste 0 -- -- 30
2020-09-09 14:00:00 27.5 10 Sur 17 Sur 0 -- -- 36
2020-09-09 13:00:00 23.3 4 Sudoeste 14 Oeste 0 -- -- 45
2020-09-09 12:00:00 21.2 3 Sudoeste 12 Sudoeste 0 -- -- 51
2020-09-09 11:00:00 19.7 4 Sur 8 Sur 0 -- -- 57
2020-09-09 10:00:00 16 2 Sur 8 Oeste 0 -- -- 66
2020-09-09 09:00:00 13.1 0 Calma 7 Noroeste 0 -- -- 74
2020-09-09 08:00:00 10.1 0 Calma 8 Norte 0 -- -- 82
2020-09-09 07:00:00 10.8 0 Calma 6 Noroeste 0 -- -- 78
2020-09-09 06:00:00 11.4 0 Calma 4 Norte 0 -- -- 76
2020-09-09 05:00:00 11.8 0 Calma 6 Noroeste 0 -- -- 74
2020-09-09 04:00:00 12.6 0 Calma 4 Norte 0 -- -- 71
2020-09-09 03:00:00 14.2 0 Calma 7 Nordeste 0 -- -- 66
2020-09-09 02:00:00 15.1 3 Nordeste 6 Nordeste 0 -- -- 62
2020-09-09 01:00:00 14.7 2 Nordeste 7 Nordeste 0 -- -- 57
2020-09-09 00:00:00 15.8 3 Nordeste 12 Este 0 -- -- 53
2020-09-08 23:00:00 20 4 Este 18 Nordeste 0 -- -- 38
2020-09-08 22:00:00 20.5 7 Nordeste 21 Nordeste 0 -- -- 38
2020-09-08 21:00:00 20 5 Nordeste 18 Este 0 -- -- 45
2020-09-08 20:00:00 22.6 5 Nordeste 20 Sudeste 0 -- -- 41
2020-09-08 19:00:00 26 10 Sudeste 21 Sur 0 -- -- 24
2020-09-08 18:00:00 27.6 9 Sudeste 24 Sur 0 -- -- 23
2020-09-08 17:00:00 27.8 15 Sur 24 Sur 0 -- -- 25
2020-09-08 16:00:00 26.3 9 Sur 23 Sur 0 -- -- 27
2020-09-08 15:00:00 25.2 11 Sur 24 Sudoeste 0 -- -- 30
2020-09-08 14:00:00 24 10 Sur 20 Sur 0 -- -- 29
2020-09-08 13:00:00 20.6 5 Sur 14 Sudoeste 0 -- -- 49
2020-09-08 12:00:00 18.9 8 Sur 14 Sur 0 -- -- 55
2020-09-08 11:00:00 16.9 4 Sur 9 Sur 0 -- -- 63
2020-09-08 10:00:00 14 3 Sudeste 5 Sudeste 0 -- -- 76
2020-09-08 09:00:00 10.9 3 Sur 6 Nordeste 0 -- -- 87
2020-09-08 08:00:00 8.9 0 Calma 8 Norte 0 -- -- 91
2020-09-08 07:00:00 8.8 0 Calma 7 Norte 0 -- -- 92
2020-09-08 06:00:00 9.2 2 Norte 15 Sudoeste 0 -- -- 90
2020-09-08 05:00:00 10.5 3 Nordeste 9 Sudoeste 0 -- -- 87
2020-09-08 04:00:00 11.8 6 Norte 17 Oeste 0 -- -- 82
2020-09-08 03:00:00 11.6 3 Norte 17 Norte 0 -- -- 82
2020-09-08 02:00:00 13 5 Norte 17 Oeste 0 -- -- 76
2020-09-08 01:00:00 13.2 4 Oeste 18 Sudoeste 0 -- -- 74
2020-09-08 00:00:00 13.6 7 Oeste 28 Sudeste 0 -- -- 71
2020-09-07 23:00:00 13.3 5 Norte 23 Noroeste 0 -- -- 70
2020-09-07 22:00:00 14.1 7 Norte 36 Noroeste 0 -- -- 65
2020-09-07 21:00:00 14.8 9 Norte 33 Nordeste 0 -- -- 60
2020-09-07 20:00:00 16.1 9 Norte 29 Noroeste 0 -- -- 52
2020-09-07 19:00:00 18.6 9 Oeste 28 Sudeste 0 -- -- 43
2020-09-07 18:00:00 19.5 10 Norte 35 Norte 0 -- -- 40
2020-09-07 17:00:00 19.8 10 Noroeste 33 Noroeste 0 -- -- 41
2020-09-07 16:00:00 20.1 6 Norte 34 Noroeste 0 -- -- 43
2020-09-07 15:00:00 19.4 13 Noroeste 32 Noroeste 0 -- -- 45
2020-09-07 14:00:00 18.4 6 Sudoeste 24 Norte 0 -- -- 50
2020-09-07 13:00:00 16.4 9 Norte 24 Noroeste 0 -- -- 55
2020-09-07 12:00:00 15.2 8 Noroeste 26 Sudeste 0 -- -- 66
2020-09-07 11:00:00 15.1 7 Noroeste 23 Este 0 -- -- 73
2020-09-07 10:00:00 12.5 5 Oeste 23 Noroeste 0 -- -- 84
2020-09-07 09:00:00 12.5 4 Oeste 22 Oeste 0 -- -- 81
2020-09-07 08:00:00 12.5 6 Noroeste 30 Noroeste 0 -- -- 78
2020-09-07 07:00:00 12.8 7 Nordeste 30 Norte 0 -- -- 73
2020-09-07 06:00:00 12.5 10 Norte 33 Norte 0 -- -- 78
2020-09-07 05:00:00 13 7 Norte 24 Norte 0 -- -- 73
2020-09-07 04:00:00 13.4 4 Noroeste 24 Nordeste 0 -- -- 72
2020-09-07 03:00:00 13.8 5 Sur 22 Norte 0 -- -- 71
2020-09-07 02:00:00 14 8 Noroeste 18 Oeste 0 -- -- 72
2020-09-07 01:00:00 13.9 5 Oeste 23 Noroeste 0 -- -- 76
2020-09-07 00:00:00 14.2 5 Oeste 28 Noroeste 0 -- -- 73
2020-09-06 23:00:00 14.6 8 Oeste 25 Norte 0 -- -- 71
2020-09-06 22:00:00 14.9 8 Noroeste 29 Norte 0 -- -- 71
2020-09-06 21:00:00 15.4 5 Norte 31 Norte 0 -- -- 71
2020-09-06 20:00:00 16.4 10 Norte 27 Norte 0 -- -- 64
2020-09-06 19:00:00 17.6 7 Noroeste 22 Norte 0 -- -- 59
2020-09-06 18:00:00 17.9 8 Norte 31 Noroeste 0 -- -- 54
2020-09-06 17:00:00 18.8 11 Nordeste 24 Noroeste 0 -- -- 52
2020-09-06 16:00:00 19.5 7 Norte 28 Noroeste 0 -- -- 52
2020-09-06 15:00:00 18.5 9 Noroeste 23 Noroeste 0 -- -- 56
2020-09-06 14:00:00 17.4 9 Noroeste 24 Noroeste 0 -- -- 61
2020-09-06 13:00:00 15.9 5 Noroeste 17 Norte 0 -- -- 69
2020-09-06 12:00:00 16.3 4 Noroeste 17 Noroeste 0 -- -- 68
2020-09-06 11:00:00 16.2 4 Sur 20 Oeste 0 -- -- 70
2020-09-06 10:00:00 16 5 Nordeste 21 Este 0 -- -- 71
2020-09-06 09:00:00 15.3 8 Norte 20 Nordeste 0 -- -- 74
2020-09-06 08:00:00 14.9 5 Nordeste 13 Nordeste 0 -- -- 77
2020-09-06 07:00:00 15.2 4 Sur 10 Sudeste 0 -- -- 79
2020-09-06 06:00:00 15.4 6 Sur 13 Sudeste 0 -- -- 77
2020-09-06 05:00:00 15.4 8 Sudoeste 16 Sudoeste 0 -- -- 79
2020-09-06 04:00:00 15.7 7 Sur 14 Sudoeste 0 -- -- 76
2020-09-06 03:00:00 15.6 5 Oeste 14 Norte 0 -- -- 79
2020-09-06 02:00:00 16.1 5 Noroeste 14 Norte 0 -- -- 75
2020-09-06 01:00:00 16 6 Oeste 19 Sudeste 0 -- -- 79
2020-09-06 00:00:00 16.8 6 Sudoeste 19 Oeste 0 -- -- 73
2020-09-05 23:00:00 16.8 9 Oeste 17 Noroeste 0 -- -- 76
2020-09-05 22:00:00 17.1 5 Noroeste 23 Noroeste 0 -- -- 76
2020-09-05 21:00:00 17.7 7 Noroeste 30 Oeste 0 -- -- 74
2020-09-05 20:00:00 18.5 7 Oeste 34 Este 0 -- -- 70
2020-09-05 19:00:00 19.2 11 Norte 30 Norte 0 -- -- 66
2020-09-05 18:00:00 21.8 10 Norte 38 Norte 0 -- -- 60
2020-09-05 17:00:00 23.5 9 Norte 35 Nordeste 0 -- -- 54
2020-09-05 16:00:00 23.5 11 Nordeste 32 Norte 0 -- -- 54
2020-09-05 15:00:00 23.1 14 Norte 38 Norte 0 -- -- 56
2020-09-05 14:00:00 21.9 16 Norte 38 Norte 0 -- -- 61
2020-09-05 13:00:00 21.7 14 Norte 30 Norte 0 -- -- 65
2020-09-05 12:00:00 21.7 12 Nordeste 29 Norte 0 -- -- 64
2020-09-05 11:00:00 21 10 Nordeste 30 Norte 0 -- -- 63
2020-09-05 10:00:00 19.8 12 Nordeste 27 Este 0 -- -- 68
2020-09-05 09:00:00 18.7 9 Nordeste 28 Nordeste 0 -- -- 71
2020-09-05 08:00:00 17.8 10 Nordeste 23 Nordeste 0 -- -- 74
2020-09-05 07:00:00 17.9 7 Este 21 Nordeste 0 -- -- 70
2020-09-05 06:00:00 18.8 4 Norte 13 Norte 0 -- -- 67
2020-09-05 05:00:00 16.6 3 Nordeste 6 Nordeste 0 -- -- 64
2020-09-05 04:00:00 17.9 4 Noroeste 7 Noroeste 0 -- -- 55
2020-09-05 03:00:00 18.3 2 Nordeste 7 Este 0 -- -- 54
2020-09-05 02:00:00 19.5 3 Nordeste 8 Norte 0 -- -- 49
2020-09-05 01:00:00 21.1 3 Nordeste 15 Sudeste 0 -- -- 45
2020-09-05 00:00:00 25.1 6 Nordeste 15 Nordeste 0 -- -- 33
2020-09-04 23:00:00 23.5 3 Nordeste 11 Oeste 0 -- -- 41
2020-09-04 22:00:00 27.4 4 Norte 26 Noroeste 0 -- -- 35
2020-09-04 21:00:00 24.8 3 Nordeste 18 Este 0 -- -- 44
2020-09-04 20:00:00 28.6 8 Sudeste 21 Sudeste 0 -- -- 37
2020-09-04 19:00:00 31.1 9 Sudeste 21 Sur 0 -- -- 32
2020-09-04 18:00:00 32 12 Sudeste 24 Sudeste 0 -- -- 33
2020-09-04 17:00:00 32.2 13 Sudeste 27 Sudeste 0 -- -- 33
2020-09-04 16:00:00 31.2 11 Sudeste 27 Sur 0 -- -- 35
2020-09-04 15:00:00 30.5 15 Sudeste 25 Sudeste 0 -- -- 36
2020-09-04 14:00:00 29.3 13 Sudeste 26 Sur 0 -- -- 39
2020-09-04 13:00:00 27.1 15 Sur 27 Sudeste 0 -- -- 45
2020-09-04 12:00:00 24.7 12 Sur 22 Sudeste 0 -- -- 53
2020-09-04 11:00:00 19.9 8 Sur 12 Sur 0 -- -- 53
2020-09-04 10:00:00 17.3 5 Oeste 12 Oeste 0 -- -- 55
2020-09-04 09:00:00 16.4 4 Noroeste 13 Norte 0 -- -- 55
2020-09-04 08:00:00 12.3 2 Nordeste 8 Nordeste 0 -- -- 73
2020-09-04 07:00:00 12 3 Nordeste 6 Nordeste 0 -- -- 69
2020-09-04 06:00:00 12.8 3 Nordeste 5 Norte 0 -- -- 66
2020-09-04 05:00:00 13 3 Nordeste 6 Nordeste 0 -- -- 65
2020-09-04 04:00:00 14.5 2 Nordeste 6 Norte 0 -- -- 58
2020-09-04 03:00:00 16 3 Nordeste 6 Nordeste 0 -- -- 52
2020-09-04 02:00:00 16.5 3 Nordeste 5 Nordeste 0 -- -- 47
2020-09-04 01:00:00 17.1 2 Nordeste 5 Nordeste 0 -- -- 46
2020-09-04 00:00:00 18.4 2 Nordeste 8 Norte 0 -- -- 45
2020-09-03 23:00:00 19.5 3 Nordeste 9 Nordeste 0 -- -- 42
2020-09-03 22:00:00 21.8 3 Nordeste 10 Norte 0 -- -- 38
2020-09-03 21:00:00 21.4 3 Nordeste 7 Nordeste 0 -- -- 39
2020-09-03 20:00:00 26.7 5 Sudeste 15 Sudeste 0 -- -- 29
2020-09-03 19:00:00 30.5 9 Sudeste 18 Sur 0 -- -- 23
2020-09-03 18:00:00 30.5 10 Sudeste 16 Sur 0 -- -- 21
2020-09-03 17:00:00 29.9 7 Sur 17 Sur 0 -- -- 24
2020-09-03 16:00:00 29.5 4 Sur 12 Sur 0 -- -- 20
2020-09-03 15:00:00 26.7 5 Sur 15 Sur 0 -- -- 24
2020-09-03 14:00:00 25.9 5 Sur 15 Sur 0 -- -- 25
2020-09-03 13:00:00 23.4 8 Sur 18 Sudeste 0 -- -- 38
2020-09-03 12:00:00 19.9 6 Sur 12 Sur 0 -- -- 46
2020-09-03 11:00:00 17.3 5 Sur 8 Sur 0 -- -- 58
2020-09-03 10:00:00 15.2 3 Sudeste 5 Sudeste 0 -- -- 63
2020-09-03 09:00:00 10.2 3 Sur 5 Sur 0 -- -- 76
2020-09-03 08:00:00 8.5 3 Nordeste 7 Nordeste 0 -- -- 74
2020-09-03 07:00:00 7.1 2 Noroeste 4 Nordeste 0 -- -- 84
2020-09-03 06:00:00 7.9 2 Nordeste 5 Noroeste 0 -- -- 78
2020-09-03 05:00:00 8.9 2 Nordeste 5 Este 0 -- -- 72
2020-09-03 04:00:00 9.5 2 Nordeste 5 Norte 0 -- -- 70
2020-09-03 03:00:00 10.5 3 Nordeste 8 Nordeste 0 -- -- 64
2020-09-03 02:00:00 11.4 3 Nordeste 8 Norte 0 -- -- 62
2020-09-03 01:00:00 12.3 3 Nordeste 8 Este 0 -- -- 59
2020-09-03 00:00:00 13.1 3 Norte 8 Nordeste 0 -- -- 60
2020-09-02 23:00:00 14.7 2 Norte 17 Norte 0 -- -- 57
2020-09-02 22:00:00 17.1 8 Norte 30 Este 0 -- -- 50
2020-09-02 21:00:00 18 14 Nordeste 34 Nordeste 0 -- -- 49
2020-09-02 20:00:00 20.2 7 Norte 19 Norte 0 -- -- 47
2020-09-02 19:00:00 23.4 5 Nordeste 20 Oeste 0 -- -- 41
2020-09-02 18:00:00 23.9 8 Noroeste 23 Norte 0 -- -- 38
2020-09-02 17:00:00 23.8 8 Noroeste 23 Noroeste 0 -- -- 38
2020-09-02 16:00:00 23.4 9 Noroeste 26 Noroeste 0 -- -- 38
2020-09-02 15:00:00 23 10 Noroeste 31 Noroeste 0 -- -- 41
2020-09-02 14:00:00 22.6 8 Sudeste 43 Sudeste 0 -- -- 44
2020-09-02 13:00:00 20.2 8 Oeste 22 Este 0 -- -- 51
2020-09-02 12:00:00 19.3 6 Sur 16 Sur 0 -- -- 60
2020-09-02 11:00:00 15.7 4 Sudoeste 9 Oeste 0 -- -- 75
2020-09-02 10:00:00 14.2 4 Oeste 9 Sudoeste 0 -- -- 82
2020-09-02 09:00:00 12.8 4 Sudeste 9 Este 0 -- -- 87
2020-09-02 08:00:00 10.4 3 Norte 7 Nordeste 0 -- -- 90
2020-09-02 07:00:00 11.3 3 Norte 10 Norte 0 -- -- 88
2020-09-02 06:00:00 10.9 2 Norte 7 Noroeste 0 -- -- 91
2020-09-02 05:00:00 11.6 3 Nordeste 7 Norte 0 -- -- 87
2020-09-02 04:00:00 13.6 5 Nordeste 15 Este 0 -- -- 79
2020-09-02 03:00:00 14.4 4 Nordeste 12 Nordeste 0 -- -- 79
2020-09-02 02:00:00 14 4 Noroeste 18 Oeste 0 -- -- 77
2020-09-02 01:00:00 15.4 5 Norte 31 Nordeste 0 -- -- 70
2020-09-02 00:00:00 15.6 11 Nordeste 37 Nordeste 0 -- -- 71
2020-09-01 23:00:00 16.1 19 Norte 45 Norte 0 -- -- 70
2020-09-01 22:00:00 16.7 20 Norte 40 Norte 0 -- -- 69
2020-09-01 21:00:00 17.5 13 Nordeste 44 Norte 0 -- -- 62
2020-09-01 20:00:00 18.8 18 Nordeste 37 Norte 0 -- -- 53
2020-09-01 19:00:00 21.7 13 Nordeste 33 Norte 0 -- -- 45
2020-09-01 18:00:00 23.3 13 Norte 30 Norte 0 -- -- 40
2020-09-01 17:00:00 23.7 9 Norte 26 Norte 0 -- -- 34
2020-09-01 16:00:00 23.7 9 Norte 22 Norte 0 -- -- 36
2020-09-01 15:00:00 24.2 8 Norte 24 Noroeste 0 -- -- 33
2020-09-01 14:00:00 24.2 6 Norte 31 Sur 0 -- -- 33
2020-09-01 13:00:00 23.2 5 Sur 18 Sur 0 -- -- 39
2020-09-01 12:00:00 21.5 7 Sur 10 Sur 0 -- -- 41
2020-09-01 11:00:00 18.7 3 Sudeste 7 Oeste 0 -- -- 56
2020-09-01 10:00:00 14.5 5 Sudoeste 9 Sudoeste 0 -- -- 71
2020-09-01 09:00:00 12.4 2 Sur 4 Sur 0 -- -- 77
2020-09-01 08:00:00 10.6 0 Calma 3 Norte 0 -- -- 84
2020-09-01 07:00:00 11.5 0 Calma 7 Norte 0 -- -- 78
2020-09-01 06:00:00 11.4 6 Norte 9 Norte 0 -- -- 77
2020-09-01 05:00:00 11.7 2 Norte 8 Oeste 0 -- -- 76
2020-09-01 04:00:00 12.5 2 Nordeste 5 Norte 0 -- -- 74
2020-09-01 03:00:00 12.9 2 Norte 8 Noroeste 0 -- -- 69
2020-09-01 02:00:00 13.7 2 Nordeste 6 Este 0 -- -- 67
2020-09-01 01:00:00 14 0 Calma 8 Norte 0 -- -- 61
2020-09-01 00:00:00 15.1 2 Norte 11 Este 0 -- -- 59
2020-08-31 23:00:00 17.4 6 Noroeste 22 Este 0 -- -- 54
2020-08-31 22:00:00 17.7 8 Nordeste 28 Nordeste 0 -- -- 51
2020-08-31 21:00:00 18.5 13 Nordeste 31 Norte 0 -- -- 52
2020-08-31 20:00:00 20.2 7 Nordeste 22 Norte 0 -- -- 40
2020-08-31 19:00:00 22 8 Norte 18 Nordeste 0 -- -- 35
2020-08-31 18:00:00 23.3 5 Norte 22 Nordeste 0 -- -- 32
2020-08-31 17:00:00 23.5 10 Noroeste 23 Oeste 0 -- -- 31
2020-08-31 16:00:00 22.7 9 Norte 22 Norte 0 -- -- 32
2020-08-31 15:00:00 21.6 8 Oeste 18 Sur 0 -- -- 31
2020-08-31 14:00:00 19.5 7 Sudoeste 15 Sudoeste 0 -- -- 44
2020-08-31 13:00:00 17.8 8 Sudoeste 14 Sur 0 -- -- 43
2020-08-31 12:00:00 16.3 5 Sudeste 12 Sur 0 -- -- 60
2020-08-31 11:00:00 14 5 Sur 9 Oeste 0 -- -- 75
2020-08-31 10:00:00 11.4 4 Sur 6 Oeste 0 -- -- 85
2020-08-31 09:00:00 9.9 2 Este 5 Sudeste 0 -- -- 90
2020-08-31 08:00:00 6.8 0 Calma 5 Nordeste 0 -- -- 95
2020-08-31 07:00:00 6.9 2 Nordeste 5 Sudoeste 0 -- -- 95
2020-08-31 06:00:00 7.4 2 Nordeste 5 Nordeste 0 -- -- 94
2020-08-31 05:00:00 7.6 2 Norte 7 Noroeste 0 -- -- 94
2020-08-31 04:00:00 8.3 3 Norte 7 Sudoeste 0 -- -- 93
2020-08-31 03:00:00 8.5 2 Nordeste 5 Oeste 0 -- -- 91
2020-08-31 02:00:00 9.5 2 Norte 7 Noroeste 0 -- -- 88
2020-08-31 01:00:00 10.9 3 Norte 7 Nordeste 0 -- -- 83
2020-08-31 00:00:00 9.7 2 Nordeste 14 Oeste 0 -- -- 87
2020-08-30 23:00:00 11.8 4 Noroeste 31 Norte 0 -- -- 77
2020-08-30 22:00:00 12.6 12 Norte 25 Nordeste 0 -- -- 74
2020-08-30 21:00:00 13.1 7 Norte 35 Norte 0 -- -- 70
2020-08-30 20:00:00 14 16 Norte 35 Noroeste 0 -- -- 66
2020-08-30 19:00:00 14.6 13 Norte 28 Norte 0 -- -- 64
2020-08-30 18:00:00 13.7 12 Norte 30 Norte 0.2 -- -- 68
2020-08-30 17:00:00 15.1 11 Norte 27 Norte 0 -- -- 65
2020-08-30 16:00:00 15.3 5 Norte 23 Oeste 0 -- -- 60
2020-08-30 15:00:00 15.3 8 Noroeste 24 Nordeste 0 -- -- 57
2020-08-30 14:00:00 14.3 9 Nordeste 22 Noroeste 0 -- -- 64
2020-08-30 13:00:00 13.6 7 Norte 34 Oeste 0 -- -- 70
2020-08-30 12:00:00 13.1 8 Noroeste 19 Norte 0 -- -- 73
2020-08-30 11:00:00 13.3 5 Noroeste 13 Noroeste 0 -- -- 70
2020-08-30 10:00:00 12.2 4 Oeste 9 Sudoeste 0 -- -- 80
2020-08-30 09:00:00 10.8 3 Oeste 6 Norte 0 -- -- 88
2020-08-30 08:00:00 9.4 4 Norte 9 Norte 0 -- -- 89
2020-08-30 07:00:00 9.6 4 Norte 13 Norte 0 -- -- 89
2020-08-30 06:00:00 9.5 4 Norte 10 Nordeste 0 -- -- 91
2020-08-30 05:00:00 10.2 5 Norte 12 Norte 0 -- -- 90
2020-08-30 04:00:00 10.3 4 Norte 8 Norte 0.2 -- -- 92
2020-08-30 03:00:00 9.6 2 Oeste 11 Noroeste 0 -- -- 93
2020-08-30 02:00:00 10.3 5 Norte 13 Noroeste 0 -- -- 89
2020-08-30 01:00:00 10.2 4 Noroeste 10 Sudoeste 0.6 -- -- 90
2020-08-30 00:00:00 10.4 4 Norte 14 Norte 0 -- -- 85
2020-08-29 23:00:00 10.6 5 Norte 21 Norte 0 -- -- 81
2020-08-29 22:00:00 11.4 8 Norte 24 Norte 0.4 -- -- 82
2020-08-29 21:00:00 12 9 Norte 28 Norte 2.8 -- -- 86
2020-08-29 20:00:00 12.5 10 Norte 31 Norte 1 -- -- 86
2020-08-29 19:00:00 14.5 11 Norte 30 Norte 0 -- -- 73
2020-08-29 18:00:00 15.8 13 Norte 35 Norte 0 -- -- 65
2020-08-29 17:00:00 16.1 13 Norte 32 Norte 0.2 -- -- 66
2020-08-29 16:00:00 13.5 9 Norte 29 Oeste 2.2 -- -- 83
2020-08-29 15:00:00 16 9 Noroeste 22 Norte 0 -- -- 73
2020-08-29 14:00:00 15.2 7 Norte 24 Norte 1.6 -- -- 77
2020-08-29 13:00:00 17.8 8 Oeste 26 Sur 0 -- -- 52
2020-08-29 12:00:00 16.7 6 Oeste 18 Sudoeste 0 -- -- 57
2020-08-29 11:00:00 16.5 6 Norte 20 Noroeste 0 -- -- 57
2020-08-29 10:00:00 14 4 Oeste 12 Sur 0 -- -- 69
2020-08-29 09:00:00 11.8 3 Norte 6 Oeste 0 -- -- 78
2020-08-29 08:00:00 11.6 2 Oeste 7 Oeste 0 -- -- 78
2020-08-29 07:00:00 11.5 4 Norte 8 Sudoeste 0 -- -- 81
2020-08-29 06:00:00 12.3 5 Sudoeste 9 Sudoeste 0 -- -- 76
2020-08-29 05:00:00 12.4 4 Oeste 8 Oeste 0 -- -- 81
2020-08-29 04:00:00 12.5 4 Norte 10 Nordeste 0 -- -- 77
2020-08-29 03:00:00 13 4 Norte 13 Noroeste 0 -- -- 76
2020-08-29 02:00:00 13.8 4 Noroeste 17 Noroeste 0 -- -- 73
2020-08-29 01:00:00 14.3 5 Norte 22 Norte 0 -- -- 70
2020-08-29 00:00:00 14.5 6 Norte 23 Nordeste 0 -- -- 67
2020-08-28 23:00:00 14.6 15 Norte 39 Norte 0 -- -- 68
2020-08-28 22:00:00 14.7 22 Norte 43 Noroeste 0 -- -- 68
2020-08-28 21:00:00 14.8 17 Norte 41 Norte 0 -- -- 68
2020-08-28 20:00:00 15.4 21 Norte 45 Norte 0 -- -- 66
2020-08-28 19:00:00 15.6 22 Norte 46 Norte 0 -- -- 69
2020-08-28 18:00:00 16.9 17 Norte 44 Nordeste 0 -- -- 67
2020-08-28 17:00:00 16.9 19 Norte 40 Norte 0 -- -- 68
2020-08-28 16:00:00 17.7 17 Nordeste 41 Nordeste 0 -- -- 69
2020-08-28 15:00:00 18.6 18 Nordeste 37 Norte 0 -- -- 65
2020-08-28 14:00:00 17.9 19 Nordeste 44 Nordeste 0 -- -- 71
2020-08-28 13:00:00 19 19 Nordeste 42 Norte 0 -- -- 66
2020-08-28 12:00:00 18.8 17 Nordeste 39 Nordeste 0 -- -- 69
2020-08-28 11:00:00 18.7 14 Nordeste 40 Norte 0 -- -- 70
2020-08-28 10:00:00 17.1 17 Nordeste 39 Norte 0 -- -- 77
2020-08-28 09:00:00 17.9 12 Nordeste 26 Norte 0 -- -- 78
2020-08-28 08:00:00 19 4 Nordeste 18 Nordeste 0 -- -- 81
2020-08-28 07:00:00 18.9 6 Noroeste 13 Noroeste 0 -- -- 83
2020-08-28 06:00:00 18.9 5 Sur 14 Sur 0 -- -- 82
2020-08-28 05:00:00 19.3 7 Este 24 Noroeste 0 -- -- 79
2020-08-28 04:00:00 19.7 5 Sudoeste 13 Este 0 -- -- 76
2020-08-28 03:00:00 19.6 5 Sudeste 15 Este 0 -- -- 76
2020-08-28 02:00:00 18.3 4 Noroeste 13 Norte 0 -- -- 82
2020-08-28 01:00:00 19.9 3 Oeste 19 Norte 0 -- -- 74
2020-08-28 00:00:00 20.1 9 Nordeste 36 Norte 0 -- -- 75